Time;durP1;ratioP1;P1;durP2;ratioP2;P2;SDS_P1;SDS_P2;PMS_P1;PMS_P2;Temp;Humidity;BMP_temperature;BMP_pressure;BME280_temperature;BME280_humidity;BME280_pressure;Samples;Min_cycle;Max_cycle;Signal;HPM_P1;HPM_P2
2021/11/13 00:00:23;;;;;;;62.47;35.40;;;4.20;1.00;;;;;;5093854;28;20447;-89
2021/11/13 00:02:51;;;;;;;60.67;35.63;;;4.10;1.00;;;;;;5099372;28;20220;-89
2021/11/13 00:05:21;;;;;;;55.80;35.72;;;4.20;1.00;;;;;;5093073;28;20256;-86
2021/11/13 00:07:48;;;;;;;54.20;34.97;;;4.20;1.00;;;;;;5126592;27;20244;-86
2021/11/13 00:10:25;;;;;;;53.38;32.67;;;4.20;1.00;;;;;;5090722;28;21081;-87
2021/11/13 00:12:53;;;;;;;49.28;34.75;;;4.20;1.00;;;;;;5091665;28;20228;-88
2021/11/13 00:15:21;;;;;;;51.10;35.03;;;4.30;1.00;;;;;;5091275;28;20228;-86
2021/11/13 00:17:49;;;;;;;51.08;33.00;;;4.20;1.00;;;;;;5094140;28;21067;-88
2021/11/13 00:20:18;;;;;;;52.33;34.28;;;4.20;1.00;;;;;;5089410;27;23437;-88
2021/11/13 00:22:46;;;;;;;54.92;34.88;;;4.30;1.00;;;;;;5080629;28;20315;-88
2021/11/13 00:25:14;;;;;;;51.33;33.65;;;4.20;1.00;;;;;;5082985;28;20719;-90
2021/11/13 00:27:42;;;;;;;55.30;32.33;;;4.20;1.00;;;;;;5100297;27;20228;-86
2021/11/13 00:30:11;;;;;;;57.08;34.90;;;4.30;1.00;;;;;;5110971;27;21199;-88
2021/11/13 00:32:38;;;;;;;53.65;32.70;;;4.30;1.00;;;;;;5082276;28;20239;-88
2021/11/13 00:35:06;;;;;;;52.03;34.03;;;4.30;1.00;;;;;;5116712;27;20236;-86
2021/11/13 00:37:33;;;;;;;51.78;32.38;;;4.30;1.00;;;;;;5084208;28;21773;-91
2021/11/13 00:40:04;;;;;;;51.47;32.72;;;4.30;1.00;;;;;;5085018;28;20272;-86
2021/11/13 00:42:30;;;;;;;61.97;34.75;;;4.30;1.00;;;;;;5083896;28;20217;-85
2021/11/13 00:44:57;;;;;;;57.08;34.05;;;4.30;1.00;;;;;;5091223;28;20668;-85
2021/11/13 00:47:28;;;;;;;54.58;32.65;;;4.40;1.00;;;;;;5084306;28;21064;-85
2021/11/13 00:49:57;;;;;;;51.67;32.55;;;4.40;1.00;;;;;;5085689;28;20224;-86
2021/11/13 00:52:27;;;;;;;50.35;32.72;;;4.40;1.00;;;;;;5086694;28;20296;-85
2021/11/13 00:54:54;;;;;;;53.75;33.83;;;4.30;1.00;;;;;;5090143;28;20212;-86
2021/11/13 00:57:24;;;;;;;54.72;34.42;;;4.30;1.00;;;;;;5083873;28;20245;-87
2021/11/13 00:59:51;;;;;;;55.97;33.55;;;4.30;1.00;;;;;;5082989;28;20859;-89
2021/11/13 01:02:19;;;;;;;54.50;32.40;;;4.30;1.00;;;;;;5084685;28;20224;-89
2021/11/13 01:04:46;;;;;;;52.40;32.90;;;4.30;1.00;;;;;;5084888;28;20286;-90
2021/11/13 01:07:13;;;;;;;51.97;32.22;;;4.30;1.00;;;;;;5081288;28;20255;-91
2021/11/13 01:09:40;;;;;;;52.85;31.17;;;4.30;1.00;;;;;;5115786;27;20228;-86
2021/11/13 01:12:08;;;;;;;42.05;30.23;;;4.30;1.00;;;;;;5084491;28;20224;-89
2021/11/13 01:14:41;;;;;;;49.00;32.05;;;4.30;1.00;;;;;;5087262;28;20347;-84
2021/11/13 01:17:09;;;;;;;52.28;31.58;;;4.30;1.00;;;;;;5084021;28;21150;-89
2021/11/13 01:19:36;;;;;;;50.67;32.67;;;4.30;1.00;;;;;;5081625;28;20282;-88
2021/11/13 01:22:04;;;;;;;54.40;31.52;;;4.40;1.00;;;;;;5086546;28;20221;-87
2021/11/13 01:24:33;;;;;;;50.55;32.20;;;4.40;1.00;;;;;;5089689;28;20228;-89
2021/11/13 01:27:01;;;;;;;49.47;30.55;;;4.40;1.00;;;;;;5087906;28;20232;-93
2021/11/13 01:29:29;;;;;;;48.40;31.17;;;4.40;1.00;;;;;;5082836;28;20216;-88
2021/11/13 01:31:59;;;;;;;53.45;33.95;;;4.40;1.00;;;;;;5088606;28;20709;-86
2021/11/13 01:34:26;;;;;;;48.88;31.58;;;4.40;1.00;;;;;;5089176;28;20290;-87
2021/11/13 01:36:54;;;;;;;51.88;31.02;;;4.40;1.00;;;;;;5085435;28;20263;-90
2021/11/13 01:39:22;;;;;;;56.67;33.00;;;4.40;1.00;;;;;;5077380;28;20297;-87
2021/11/13 01:41:50;;;;;;;46.70;29.50;;;4.40;1.00;;;;;;5089712;28;20307;-85
2021/11/13 01:44:17;;;;;;;52.78;33.75;;;4.40;1.00;;;;;;5086528;28;20223;-92
2021/11/13 01:46:44;;;;;;;52.33;31.08;;;4.40;1.00;;;;;;5089403;28;20232;-86
2021/11/13 01:49:14;;;;;;;53.00;33.47;;;4.40;1.00;;;;;;5085773;28;20318;-85
2021/11/13 01:51:45;;;;;;;51.70;32.38;;;4.40;1.00;;;;;;5086434;28;20308;-86
2021/11/13 01:54:13;;;;;;;48.72;32.35;;;4.50;1.00;;;;;;5098586;28;20220;-95
2021/11/13 01:56:41;;;;;;;54.05;33.80;;;4.40;1.00;;;;;;5106638;27;20225;-94
2021/11/13 01:59:10;;;;;;;49.55;32.47;;;4.50;1.00;;;;;;5101437;27;20306;-94
2021/11/13 02:01:38;;;;;;;53.15;32.30;;;4.50;1.00;;;;;;5101616;27;20220;-94
2021/11/13 02:04:07;;;;;;;49.83;30.95;;;4.40;1.00;;;;;;5090880;28;20275;-87
2021/11/13 02:06:35;;;;;;;46.90;31.95;;;4.40;1.00;;;;;;5082540;28;20216;-85
2021/11/13 02:09:06;;;;;;;48.50;32.55;;;4.40;1.00;;;;;;5090627;28;20243;-88
2021/11/13 02:11:35;;;;;;;50.00;31.60;;;4.40;1.00;;;;;;5092374;28;20216;-85
2021/11/13 02:14:03;;;;;;;48.58;30.30;;;4.40;1.00;;;;;;5090517;28;20224;-85
2021/11/13 02:16:31;;;;;;;48.75;30.83;;;4.40;1.00;;;;;;5090529;28;20270;-85
2021/11/13 02:19:01;;;;;;;51.05;30.02;;;4.40;1.00;;;;;;5098728;28;20211;-92
2021/11/13 02:21:34;;;;;;;46.13;29.50;;;4.40;1.00;;;;;;5093969;27;21026;-88
2021/11/13 02:24:01;;;;;;;49.47;31.73;;;4.40;1.00;;;;;;5091605;28;20220;-90
2021/11/13 02:26:30;;;;;;;51.78;30.52;;;4.30;1.00;;;;;;5088256;28;20223;-84
2021/11/13 02:28:59;;;;;;;50.58;29.77;;;4.40;1.00;;;;;;5070900;28;20232;-83
2021/11/13 02:31:38;;;;;;;47.45;30.23;;;4.30;1.00;;;;;;5112272;27;20279;-87
2021/11/13 02:34:06;;;;;;;42.88;29.10;;;4.30;1.00;;;;;;5092376;28;20220;-87
2021/11/13 02:36:35;;;;;;;48.95;32.40;;;4.30;1.00;;;;;;5090790;28;21500;-87
2021/11/13 02:39:06;;;;;;;47.08;31.17;;;4.30;1.00;;;;;;5087937;28;20282;-89
2021/11/13 02:41:33;;;;;;;43.97;30.35;;;4.40;1.00;;;;;;5084210;28;20220;-85
2021/11/13 02:44:02;;;;;;;46.38;30.00;;;4.40;1.00;;;;;;5088861;28;20220;-85
2021/11/13 02:46:29;;;;;;;51.58;31.20;;;4.40;1.00;;;;;;5082920;28;20317;-90
2021/11/13 02:48:57;;;;;;;46.10;28.83;;;4.40;1.00;;;;;;5081202;28;20541;-85
2021/11/13 02:51:24;;;;;;;49.78;32.53;;;4.50;1.00;;;;;;5085977;28;20217;-87
2021/11/13 02:53:54;;;;;;;47.20;33.20;;;4.50;1.00;;;;;;5085298;28;20228;-87
2021/11/13 02:56:22;;;;;;;48.83;29.20;;;4.40;1.00;;;;;;5087070;28;20228;-87
2021/11/13 02:58:50;;;;;;;50.60;31.77;;;4.40;1.00;;;;;;5087961;28;20242;-89
2021/11/13 03:01:20;;;;;;;51.50;32.45;;;4.40;1.00;;;;;;5086121;28;20220;-85
2021/11/13 03:03:49;;;;;;;50.70;31.38;;;4.50;1.00;;;;;;5090059;28;20220;-86
2021/11/13 03:06:18;;;;;;;52.20;32.53;;;4.50;1.00;;;;;;5092466;28;20715;-84
2021/11/13 03:08:46;;;;;;;46.60;29.25;;;4.50;1.00;;;;;;5089506;28;20325;-90
2021/11/13 03:11:16;;;;;;;50.28;32.20;;;4.50;1.00;;;;;;5091931;28;20216;-92
2021/11/13 03:13:46;;;;;;;47.75;31.55;;;4.60;1.00;;;;;;5121717;27;20224;-88
2021/11/13 03:16:14;;;;;;;46.20;30.27;;;4.60;1.00;;;;;;5113331;27;20224;-92
2021/11/13 03:18:42;;;;;;;47.92;31.35;;;4.60;1.00;;;;;;5084650;28;20732;-89
2021/11/13 03:21:09;;;;;;;46.72;29.33;;;4.60;1.00;;;;;;5080060;28;20242;-88
2021/11/13 03:23:38;;;;;;;47.35;31.15;;;4.70;1.00;;;;;;5110048;27;20235;-87
2021/11/13 03:26:11;;;;;;;44.90;29.15;;;4.60;1.00;;;;;;5087433;28;20673;-89
2021/11/13 03:28:46;;;;;;;44.13;28.90;;;4.60;1.00;;;;;;5087308;28;20511;-86
2021/11/13 03:31:13;;;;;;;54.80;31.50;;;4.60;1.00;;;;;;5103823;27;20227;-90
2021/11/13 03:33:42;;;;;;;42.63;29.95;;;4.60;1.00;;;;;;5087410;28;20314;-92
2021/11/13 03:36:10;;;;;;;53.97;33.30;;;4.60;1.00;;;;;;5084801;28;20290;-91
2021/11/13 03:38:40;;;;;;;45.90;30.13;;;4.60;1.00;;;;;;5092036;28;20333;-89
2021/11/13 03:41:07;;;;;;;51.30;30.63;;;4.60;1.00;;;;;;5085329;28;20227;-87
2021/11/13 03:43:35;;;;;;;46.42;28.98;;;4.60;1.00;;;;;;5083870;28;20234;-87
2021/11/13 03:46:05;;;;;;;46.45;30.55;;;4.50;1.00;;;;;;5083345;28;20275;-89
2021/11/13 03:48:33;;;;;;;47.42;28.75;;;4.50;1.00;;;;;;5087290;28;20234;-88
2021/11/13 03:51:01;;;;;;;48.58;30.38;;;4.50;1.00;;;;;;5083374;28;20231;-89
2021/11/13 03:53:29;;;;;;;45.30;30.05;;;4.50;1.00;;;;;;5084647;28;20235;-87
2021/11/13 03:55:57;;;;;;;47.10;30.48;;;4.50;1.00;;;;;;5079454;28;20669;-88
2021/11/13 03:58:24;;;;;;;48.35;31.02;;;4.50;1.00;;;;;;5081915;28;20251;-87
2021/11/13 04:00:51;;;;;;;47.55;29.92;;;4.50;1.00;;;;;;5083402;28;20277;-88
2021/11/13 04:03:20;;;;;;;50.28;31.35;;;4.50;1.00;;;;;;5085591;28;20220;-84
2021/11/13 04:05:49;;;;;;;46.20;29.10;;;4.50;1.00;;;;;;5084256;28;20238;-90
2021/11/13 04:08:16;;;;;;;49.80;31.02;;;4.50;1.00;;;;;;5080075;28;20317;-91
2021/11/13 04:10:46;;;;;;;46.28;29.38;;;4.40;1.00;;;;;;5079045;28;20221;-87
2021/11/13 04:13:13;;;;;;;46.55;29.48;;;4.40;1.00;;;;;;5078283;28;21417;-88
2021/11/13 04:15:41;;;;;;;47.17;31.88;;;4.40;1.00;;;;;;5083398;28;20220;-88
2021/11/13 04:18:08;;;;;;;44.50;29.85;;;4.40;1.00;;;;;;5082907;28;20236;-90
2021/11/13 04:20:36;;;;;;;44.53;28.45;;;4.40;1.00;;;;;;5079188;28;20228;-89
2021/11/13 04:23:03;;;;;;;44.15;28.73;;;4.40;1.00;;;;;;5097090;28;20236;-88
2021/11/13 04:25:30;;;;;;;50.00;30.42;;;4.40;1.00;;;;;;5083522;28;20311;-88
2021/11/13 04:27:58;;;;;;;40.65;28.48;;;4.30;1.00;;;;;;5079732;28;20232;-85
2021/11/13 04:30:25;;;;;;;46.35;28.40;;;4.30;1.00;;;;;;5080015;28;20271;-87
2021/11/13 04:32:53;;;;;;;47.00;30.10;;;4.30;1.00;;;;;;5080101;28;20315;-85
2021/11/13 04:35:22;;;;;;;49.45;29.33;;;4.40;1.00;;;;;;5081397;28;20219;-89
2021/11/13 04:37:53;;;;;;;40.53;27.52;;;4.40;1.00;;;;;;5084851;28;20228;-89
2021/11/13 04:40:22;;;;;;;42.50;28.45;;;4.40;1.00;;;;;;5111699;27;20233;-87
2021/11/13 04:42:49;;;;;;;51.10;31.13;;;4.40;1.00;;;;;;5082211;28;20239;-91
2021/11/13 04:45:20;;;;;;;44.72;28.75;;;4.40;1.00;;;;;;5094023;27;21158;-88
2021/11/13 04:47:47;;;;;;;47.63;28.20;;;4.40;1.00;;;;;;5079405;28;20239;-88
2021/11/13 04:50:18;;;;;;;44.13;28.80;;;4.40;1.00;;;;;;5111552;27;20282;-89
2021/11/13 04:52:49;;;;;;;43.13;28.23;;;4.40;1.00;;;;;;5083710;28;20235;-85
2021/11/13 04:55:25;;;;;;;46.30;28.85;;;4.40;1.00;;;;;;5086380;28;20225;-90
2021/11/13 04:57:52;;;;;;;41.90;27.63;;;4.50;1.00;;;;;;5085191;28;20305;-87
2021/11/13 05:00:21;;;;;;;42.08;28.10;;;4.50;1.00;;;;;;5081101;28;20240;-88
2021/11/13 05:02:49;;;;;;;39.78;27.00;;;4.50;1.00;;;;;;5078855;28;20265;-87
2021/11/13 05:05:16;;;;;;;44.03;28.40;;;4.60;1.00;;;;;;5072471;28;20220;-88
2021/11/13 05:07:43;;;;;;;43.78;27.42;;;4.60;1.00;;;;;;5071336;28;20562;-86
2021/11/13 05:10:13;;;;;;;44.25;28.98;;;4.60;1.00;;;;;;5069762;28;20944;-86
2021/11/13 05:12:42;;;;;;;45.05;27.80;;;4.60;1.00;;;;;;5072712;28;20236;-89
2021/11/13 05:15:10;;;;;;;40.80;26.92;;;4.60;1.00;;;;;;5073305;28;20216;-86
2021/11/13 05:17:38;;;;;;;49.72;27.13;;;4.60;1.00;;;;;;5074808;28;20228;-87
2021/11/13 05:20:07;;;;;;;47.72;29.70;;;4.70;1.00;;;;;;5075850;28;21369;-87
2021/11/13 05:22:34;;;;;;;45.40;28.63;;;4.70;1.00;;;;;;5074511;28;20227;-90
2021/11/13 05:25:06;;;;;;;46.17;29.48;;;4.70;1.00;;;;;;5077498;28;20740;-90
2021/11/13 05:27:33;;;;;;;45.50;27.30;;;4.80;1.00;;;;;;5114870;27;20220;-87
2021/11/13 05:30:02;;;;;;;39.42;26.20;;;4.80;1.00;;;;;;5081371;28;20220;-90
2021/11/13 05:32:30;;;;;;;41.03;25.35;;;4.80;1.00;;;;;;5081000;28;20437;-86
2021/11/13 05:34:57;;;;;;;41.35;26.77;;;4.80;1.00;;;;;;5086187;28;20224;-91
2021/11/13 05:37:24;;;;;;;37.80;27.42;;;4.70;1.00;;;;;;5078624;28;20258;-86
2021/11/13 05:39:52;;;;;;;47.70;28.73;;;4.80;1.00;;;;;;5073318;28;20769;-86
2021/11/13 05:42:19;;;;;;;47.60;30.02;;;4.80;1.00;;;;;;5080569;28;20314;-85
2021/11/13 05:44:46;;;;;;;42.67;27.63;;;4.80;1.00;;;;;;5076576;28;20255;-85
2021/11/13 05:47:15;;;;;;;42.72;27.33;;;4.90;1.00;;;;;;5081051;28;20965;-85
2021/11/13 05:49:42;;;;;;;43.42;26.88;;;4.90;1.00;;;;;;5080469;28;20307;-86
2021/11/13 05:52:09;;;;;;;43.95;27.65;;;4.80;1.00;;;;;;5083063;28;20235;-86
2021/11/13 05:54:36;;;;;;;39.75;26.85;;;4.90;1.00;;;;;;5082548;28;20227;-86
2021/11/13 05:57:03;;;;;;;38.50;25.58;;;4.90;1.00;;;;;;5082151;28;20224;-86
2021/11/13 05:59:30;;;;;;;43.95;27.33;;;4.90;1.00;;;;;;5078731;28;20757;-86
2021/11/13 06:01:57;;;;;;;37.42;25.42;;;4.90;1.00;;;;;;5082475;28;20251;-88
2021/11/13 06:04:25;;;;;;;39.03;26.63;;;4.80;1.00;;;;;;5085879;27;20307;-90
2021/11/13 06:06:52;;;;;;;40.05;26.92;;;4.80;1.00;;;;;;5081826;28;20768;-86
2021/11/13 06:09:19;;;;;;;42.63;26.05;;;4.80;1.00;;;;;;5082854;28;20224;-90
2021/11/13 06:11:46;;;;;;;39.80;25.40;;;4.90;1.00;;;;;;5076907;28;20223;-89
2021/11/13 06:14:13;;;;;;;36.55;26.23;;;4.90;1.00;;;;;;5081876;28;20299;-89
2021/11/13 06:16:40;;;;;;;40.50;25.65;;;4.90;1.00;;;;;;5083645;28;21071;-92
2021/11/13 06:19:07;;;;;;;37.60;25.73;;;4.90;1.00;;;;;;5078625;28;20397;-87
2021/11/13 06:21:35;;;;;;;37.42;24.92;;;4.90;1.00;;;;;;5079460;28;20228;-88
2021/11/13 06:24:04;;;;;;;35.42;25.15;;;4.90;1.00;;;;;;5086756;28;20229;-87
2021/11/13 06:26:31;;;;;;;39.95;25.08;;;4.90;1.00;;;;;;5120982;27;20221;-88
2021/11/13 06:28:58;;;;;;;37.28;26.50;;;4.90;1.00;;;;;;5083322;28;20240;-88
2021/11/13 06:31:26;;;;;;;41.30;24.40;;;5.00;1.00;;;;;;5081598;28;21107;-87
2021/11/13 06:33:53;;;;;;;38.47;25.52;;;4.90;1.00;;;;;;5078002;28;20275;-87
2021/11/13 06:36:20;;;;;;;40.72;26.85;;;4.90;1.00;;;;;;5079816;28;20311;-87
2021/11/13 06:38:48;;;;;;;37.83;24.30;;;4.90;1.00;;;;;;5080440;28;20224;-89
2021/11/13 06:41:15;;;;;;;35.13;25.73;;;4.90;1.00;;;;;;5083858;28;20246;-87
2021/11/13 06:43:42;;;;;;;38.53;26.20;;;4.90;1.00;;;;;;5071788;28;21399;-77
2021/11/13 06:46:08;;;;;;;33.70;23.23;;;4.90;1.00;;;;;;5098129;27;20324;-78
2021/11/13 06:48:35;;;;;;;36.85;23.77;;;4.80;1.00;;;;;;5066772;28;20907;-78
2021/11/13 06:51:02;;;;;;;38.75;25.27;;;4.90;1.00;;;;;;5060292;28;20217;-78
2021/11/13 06:53:29;;;;;;;37.58;25.30;;;4.90;1.00;;;;;;5067144;28;20225;-77
2021/11/13 06:55:57;;;;;;;37.53;24.33;;;4.90;1.00;;;;;;5060360;28;20323;-76
2021/11/13 06:58:23;;;;;;;35.85;24.55;;;4.90;1.00;;;;;;5070167;28;20237;-76
2021/11/13 07:00:50;;;;;;;38.22;25.10;;;4.90;1.00;;;;;;5068024;28;20228;-77
2021/11/13 07:03:17;;;;;;;39.72;24.95;;;4.90;1.00;;;;;;5070708;28;20221;-77
2021/11/13 07:05:43;;;;;;;38.47;23.65;;;4.90;1.00;;;;;;5069551;28;20227;-77
2021/11/13 07:08:10;;;;;;;38.35;24.30;;;4.90;1.00;;;;;;5065485;28;20284;-77
2021/11/13 07:10:37;;;;;;;38.03;25.23;;;5.00;1.00;;;;;;5070180;28;20235;-77
2021/11/13 07:13:05;;;;;;;34.33;24.83;;;5.00;1.00;;;;;;5071316;28;20235;-77
2021/11/13 07:15:32;;;;;;;37.25;24.08;;;5.00;1.00;;;;;;5066763;28;20841;-76
2021/11/13 07:18:00;;;;;;;33.97;23.35;;;5.10;1.00;;;;;;5062086;28;20221;-77
2021/11/13 07:20:27;;;;;;;36.15;25.40;;;5.10;1.00;;;;;;5076478;28;20228;-77
2021/11/13 07:22:55;;;;;;;39.28;25.83;;;5.20;1.00;;;;;;5066407;28;20221;-77
2021/11/13 07:25:25;;;;;;;43.35;28.65;;;5.30;1.00;;;;;;5066015;28;20229;-76
2021/11/13 07:27:52;;;;;;;39.67;27.02;;;5.30;1.00;;;;;;5063489;28;20224;-78
2021/11/13 07:30:23;;;;;;;37.75;25.20;;;5.30;1.00;;;;;;5067258;28;20772;-77
2021/11/13 07:32:51;;;;;;;43.05;28.70;;;5.40;1.00;;;;;;5066723;28;21166;-77
2021/11/13 07:35:17;;;;;;;36.08;24.30;;;5.40;1.00;;;;;;5067206;28;20235;-77
2021/11/13 07:37:44;;;;;;;38.67;24.80;;;5.50;1.00;;;;;;5063682;28;20685;-78
2021/11/13 07:40:12;;;;;;;37.67;24.75;;;5.50;1.00;;;;;;5061974;28;20241;-78
2021/11/13 07:42:39;;;;;;;36.00;23.25;;;5.50;1.00;;;;;;5062513;28;20314;-78
2021/11/13 07:45:07;;;;;;;38.25;24.00;;;5.50;1.00;;;;;;5065220;28;21276;-79
2021/11/13 07:47:40;;;;;;;37.95;23.13;;;5.50;1.00;;;;;;5068389;28;20224;-80
2021/11/13 07:50:08;;;;;;;36.95;23.75;;;5.50;1.00;;;;;;5065956;28;20227;-79
2021/11/13 07:52:34;;;;;;;34.38;25.20;;;5.40;1.00;;;;;;5066719;28;21291;-78
2021/11/13 07:55:01;;;;;;;36.83;24.17;;;5.50;1.00;;;;;;5061960;28;20232;-78
2021/11/13 07:57:28;;;;;;;36.22;24.15;;;5.50;1.00;;;;;;5055398;28;20235;-78
2021/11/13 07:59:54;;;;;;;34.15;23.35;;;5.50;1.00;;;;;;5061115;28;20236;-79
2021/11/13 08:02:21;;;;;;;31.63;24.08;;;5.50;1.00;;;;;;5060701;28;20224;-79
2021/11/13 08:04:52;;;;;;;38.92;25.23;;;5.50;1.00;;;;;;5057609;28;20643;-78
2021/11/13 08:07:18;;;;;;;35.30;24.65;;;5.60;1.00;;;;;;5056509;28;20244;-78
2021/11/13 08:09:45;;;;;;;33.55;21.63;;;5.60;1.00;;;;;;5059758;28;20229;-79
2021/11/13 08:12:12;;;;;;;35.20;23.05;;;5.60;1.00;;;;;;5062904;28;20224;-78
2021/11/13 08:14:39;;;;;;;33.10;21.98;;;5.60;1.00;;;;;;5067733;28;20233;-78
2021/11/13 08:17:05;;;;;;;37.28;24.45;;;5.60;1.00;;;;;;5061446;28;20231;-79
2021/11/13 08:19:32;;;;;;;30.98;22.08;;;5.70;1.00;;;;;;5060480;28;20235;-78
2021/11/13 08:22:00;;;;;;;36.70;24.15;;;5.60;1.00;;;;;;5062655;28;20220;-78
2021/11/13 08:24:27;;;;;;;35.45;22.55;;;5.70;1.00;;;;;;5063922;28;20220;-81
2021/11/13 08:26:54;;;;;;;32.97;23.02;;;5.70;1.00;;;;;;5065888;28;20225;-80
2021/11/13 08:29:21;;;;;;;37.35;23.42;;;5.70;1.00;;;;;;5064251;28;20225;-81
2021/11/13 08:31:47;;;;;;;32.65;24.08;;;5.80;1.00;;;;;;5066159;28;20231;-81
2021/11/13 08:34:14;;;;;;;39.25;23.33;;;5.80;1.00;;;;;;5067770;28;20225;-81
2021/11/13 08:36:41;;;;;;;35.10;24.73;;;5.90;1.00;;;;;;5064592;28;20227;-79
2021/11/13 08:39:09;;;;;;;40.17;24.75;;;5.90;1.00;;;;;;5068728;28;20611;-80
2021/11/13 08:41:36;;;;;;;31.75;24.77;;;5.90;1.00;;;;;;5069729;28;20292;-82
2021/11/13 08:44:04;;;;;;;35.05;22.73;;;6.00;1.00;;;;;;5067960;28;20216;-82
2021/11/13 08:46:32;;;;;;;36.72;24.40;;;6.00;1.00;;;;;;5070865;28;20606;-82
2021/11/13 08:49:01;;;;;;;41.00;25.85;;;5.90;1.00;;;;;;5066462;28;20362;-80
2021/11/13 08:51:27;;;;;;;34.58;22.85;;;6.00;1.00;;;;;;5073184;28;20224;-82
2021/11/13 08:53:55;;;;;;;39.88;25.05;;;6.00;1.00;;;;;;5084589;27;20695;-81
2021/11/13 08:56:24;;;;;;;34.22;24.50;;;6.00;1.00;;;;;;5065466;28;20224;-80
2021/11/13 08:58:52;;;;;;;35.88;24.40;;;6.00;1.00;;;;;;5072370;28;20311;-80
2021/11/13 09:01:19;;;;;;;36.17;24.30;;;6.00;1.00;;;;;;5070359;28;20745;-81
2021/11/13 09:03:47;;;;;;;33.10;22.10;;;6.10;1.00;;;;;;5065954;28;20243;-81
2021/11/13 09:06:17;;;;;;;34.47;23.45;;;6.10;1.00;;;;;;5069742;28;20238;-81
2021/11/13 09:08:46;;;;;;;31.55;22.98;;;6.20;1.00;;;;;;5065353;28;20303;-80
2021/11/13 09:11:15;;;;;;;31.92;22.30;;;6.30;1.00;;;;;;5068463;28;20216;-83
2021/11/13 09:13:45;;;;;;;31.65;22.73;;;6.40;1.00;;;;;;5064587;28;20275;-82
2021/11/13 09:16:13;;;;;;;30.75;22.85;;;6.40;1.00;;;;;;5067504;28;20275;-80
2021/11/13 09:18:41;;;;;;;35.47;24.67;;;6.60;1.00;;;;;;5070486;28;20284;-85
2021/11/13 09:21:09;;;;;;;34.00;22.88;;;6.60;1.00;;;;;;5099428;27;20239;-80
2021/11/13 09:23:36;;;;;;;32.38;21.90;;;6.80;1.00;;;;;;5071255;28;20276;-79
2021/11/13 09:26:03;;;;;;;30.63;20.40;;;6.80;1.00;;;;;;5061249;28;20235;-79
2021/11/13 09:28:30;;;;;;;34.20;23.02;;;6.80;1.00;;;;;;5056067;28;20297;-83
2021/11/13 09:31:00;;;;;;;30.92;21.58;;;6.70;1.00;;;;;;5061139;28;21498;-81
2021/11/13 09:33:27;;;;;;;33.45;22.80;;;6.70;1.00;;;;;;5061752;28;20225;-81
2021/11/13 09:35:55;;;;;;;31.83;22.23;;;6.80;1.00;;;;;;5067986;28;20213;-81
2021/11/13 09:38:24;;;;;;;28.60;21.38;;;6.90;1.00;;;;;;5061381;28;20255;-80
2021/11/13 09:40:53;;;;;;;30.58;22.08;;;7.10;1.00;;;;;;5070396;28;20234;-80
2021/11/13 09:43:20;;;;;;;30.80;24.83;;;7.20;1.00;;;;;;5074117;28;20300;-80
2021/11/13 09:45:47;;;;;;;30.77;23.83;;;7.40;1.00;;;;;;5070171;28;20214;-81
2021/11/13 09:48:16;;;;;;;31.88;21.17;;;7.40;1.00;;;;;;5066938;28;20222;-78
2021/11/13 09:50:45;;;;;;;30.70;23.50;;;7.50;1.00;;;;;;5066259;28;20348;-79
2021/11/13 09:53:13;;;;;;;27.33;19.75;;;7.60;1.00;;;;;;5070063;28;20227;-79
2021/11/13 09:55:40;;;;;;;27.38;20.00;;;7.60;1.00;;;;;;5067749;28;20217;-80
2021/11/13 09:58:07;;;;;;;28.27;20.23;;;7.70;1.00;;;;;;5099782;27;20228;-80
2021/11/13 10:00:39;;;;;;;25.55;20.48;;;7.80;1.00;;;;;;5063876;28;20344;-80
2021/11/13 10:03:06;;;;;;;27.35;20.33;;;8.00;1.00;;;;;;5070509;28;20275;-79
2021/11/13 10:05:35;;;;;;;31.25;21.90;;;8.10;1.00;;;;;;5070284;28;20767;-79
2021/11/13 10:08:02;;;;;;;27.52;20.02;;;8.00;1.00;;;;;;5067076;28;20365;-78
2021/11/13 10:10:31;;;;;;;30.52;21.58;;;8.20;1.00;;;;;;5066081;28;20224;-79
2021/11/13 10:12:59;;;;;;;26.63;19.55;;;8.30;1.00;;;;;;5067261;28;20234;-80
2021/11/13 10:15:29;;;;;;;24.13;19.10;;;8.30;1.00;;;;;;5065051;28;20225;-78
2021/11/13 10:18:09;;;;;;;35.35;25.10;;;8.40;1.00;;;;;;5064672;28;20255;-79
2021/11/13 10:20:39;;;;;;;26.42;18.70;;;8.60;1.00;;;;;;5067034;28;20290;-78
2021/11/13 10:23:06;;;;;;;23.75;18.65;;;8.80;1.00;;;;;;5059963;28;20211;-78
2021/11/13 10:25:33;;;;;;;27.90;19.67;;;9.00;1.00;;;;;;5075498;27;20233;-79
2021/11/13 10:28:08;;;;;;;22.60;17.65;;;9.20;1.00;;;;;;5071906;28;20743;-79
2021/11/13 10:30:35;;;;;;;28.60;19.88;;;9.10;1.00;;;;;;5064703;28;20231;-78
2021/11/13 10:33:02;;;;;;;25.70;18.10;;;8.90;1.00;;;;;;5083643;28;20225;-79
2021/11/13 10:35:45;;;;;;;24.23;20.13;;;8.80;1.00;;;;;;5067420;28;20223;-79
2021/11/13 10:38:14;;;;;;;25.30;19.63;;;8.50;1.00;;;;;;5077513;28;20228;-79
2021/11/13 10:40:50;;;;;;;24.15;18.23;;;8.30;1.00;;;;;;5062137;28;20348;-79
2021/11/13 10:43:17;;;;;;;28.13;19.13;;;8.30;1.00;;;;;;5064782;28;20241;-79
2021/11/13 10:45:57;;;;;;;24.52;18.55;;;8.40;1.00;;;;;;5065741;28;20233;-79
2021/11/13 10:48:25;;;;;;;25.17;18.95;;;8.50;1.00;;;;;;5062056;28;20230;-80
2021/11/13 10:50:53;;;;;;;27.20;18.87;;;8.40;1.00;;;;;;5063107;28;20233;-79
2021/11/13 10:53:26;;;;;;;24.98;18.88;;;8.40;1.00;;;;;;5065585;28;20501;-80
2021/11/13 10:56:04;;;;;;;21.92;17.27;;;8.40;1.00;;;;;;5065797;28;20236;-79
2021/11/13 10:58:33;;;;;;;24.13;18.15;;;8.40;1.00;;;;;;5063609;28;20780;-78
2021/11/13 11:01:01;;;;;;;24.25;18.50;;;8.40;1.00;;;;;;5064774;28;20252;-78
2021/11/13 11:03:31;;;;;;;27.07;19.30;;;8.70;1.00;;;;;;5064413;28;20788;-77
2021/11/13 11:05:59;;;;;;;26.03;19.17;;;8.80;1.00;;;;;;5063382;28;20462;-78
2021/11/13 11:08:31;;;;;;;20.10;16.80;;;8.90;1.00;;;;;;5065143;28;20573;-79
2021/11/13 11:10:59;;;;;;;27.23;18.30;;;9.00;1.00;;;;;;5066705;28;20462;-78
2021/11/13 11:13:42;;;;;;;26.77;18.90;;;9.00;1.00;;;;;;5073795;28;20450;-79
2021/11/13 11:16:24;;;;;;;25.53;18.40;;;8.90;1.00;;;;;;5072316;28;21195;-80
2021/11/13 11:19:00;;;;;;;23.10;17.77;;;8.90;1.00;;;;;;5069291;28;20453;-77
2021/11/13 11:21:50;;;;;;;20.73;16.20;;;8.80;1.00;;;;;;5070503;28;21109;-79
2021/11/13 11:24:21;;;;;;;23.07;18.17;;;8.90;1.00;;;;;;5067542;28;20457;-78
2021/11/13 11:26:58;;;;;;;24.30;18.60;;;9.10;1.00;;;;;;5071550;28;20598;-77
2021/11/13 11:29:26;;;;;;;25.23;19.55;;;9.20;1.00;;;;;;5069204;28;20317;-79
2021/11/13 11:31:55;;;;;;;20.33;16.87;;;9.40;1.00;;;;;;5067839;28;20280;-77
2021/11/13 11:34:27;;;;;;;23.45;17.90;;;9.50;1.00;;;;;;5066141;28;20407;-78
2021/11/13 11:36:57;;;;;;;25.23;18.50;;;9.50;1.00;;;;;;5068645;28;20227;-77
2021/11/13 11:39:26;;;;;;;19.27;15.20;;;9.60;1.00;;;;;;5070887;28;21307;-79
2021/11/13 11:41:54;;;;;;;24.40;19.03;;;9.60;1.00;;;;;;5068052;28;20463;-79
2021/11/13 11:44:22;;;;;;;23.80;17.23;;;9.60;1.00;;;;;;5073589;28;20460;-78
2021/11/13 11:46:49;;;;;;;23.90;16.43;;;9.60;1.00;;;;;;5061160;28;20231;-77
2021/11/13 11:49:16;;;;;;;21.60;17.37;;;9.60;1.00;;;;;;5073538;28;20447;-77
2021/11/13 11:51:44;;;;;;;21.37;16.70;;;9.60;1.00;;;;;;5067706;28;20440;-77
2021/11/13 11:54:13;;;;;;;24.10;18.20;;;9.60;1.00;;;;;;5069863;28;20475;-77
2021/11/13 11:56:41;;;;;;;23.67;17.80;;;9.70;1.00;;;;;;5073774;28;20538;-78
2021/11/13 11:59:09;;;;;;;25.92;18.52;;;9.70;1.00;;;;;;5072004;28;20423;-77
2021/11/13 12:01:38;;;;;;;21.03;18.73;;;9.90;1.00;;;;;;5072559;28;20429;-78
2021/11/13 12:04:21;;;;;;;26.03;20.80;;;10.00;1.00;;;;;;5069816;28;20457;-77
2021/11/13 12:06:51;;;;;;;21.20;16.10;;;10.20;1.00;;;;;;5069069;28;20478;-79
2021/11/13 12:09:20;;;;;;;20.20;16.47;;;10.70;1.00;;;;;;5073591;28;20450;-77
2021/11/13 12:11:48;;;;;;;21.67;17.07;;;11.40;1.00;;;;;;5079926;28;20450;-78
2021/11/13 12:14:31;;;;;;;18.47;15.17;;;11.90;1.00;;;;;;5070611;28;20459;-79
2021/11/13 12:17:31;;;;;;;18.23;15.47;;;13.30;1.00;;;;;;5073217;28;20448;-79
2021/11/13 12:20:25;;;;;;;16.53;14.13;;;15.50;1.00;;;;;;5071285;28;20451;-79
2021/11/13 12:22:58;;;;;;;18.73;13.70;;;17.20;1.00;;;;;;5065591;28;20753;-78
2021/11/13 12:25:30;;;;;;;21.10;16.13;;;18.10;1.00;;;;;;5070914;28;20422;-78
2021/11/13 12:28:18;;;;;;;16.43;14.60;;;18.40;1.00;;;;;;5070956;28;20474;-78
2021/11/13 12:30:47;;;;;;;16.60;14.83;;;18.30;1.00;;;;;;5074737;28;20441;-78
2021/11/13 12:33:39;;;;;;;17.53;15.70;;;17.70;1.00;;;;;;5066288;28;20453;-78
2021/11/13 12:36:09;;;;;;;16.90;14.43;;;17.30;1.00;;;;;;5071752;28;20410;-78
2021/11/13 12:38:37;;;;;;;18.20;14.87;;;17.30;1.00;;;;;;5071947;28;20530;-78
2021/11/13 12:41:08;;;;;;;16.70;14.47;;;17.40;1.00;;;;;;5071193;28;20427;-79
2021/11/13 12:44:07;;;;;;;15.77;13.73;;;17.70;1.00;;;;;;5071200;28;20446;-79
2021/11/13 12:46:36;;;;;;;18.70;14.33;;;17.90;1.00;;;;;;5052279;28;20617;-79
2021/11/13 12:49:40;;;;;;;16.07;13.63;;;17.00;1.00;;;;;;5068378;28;20457;-78
2021/11/13 12:52:16;;;;;;;16.20;14.07;;;15.90;1.00;;;;;;5070606;28;20638;-78
2021/11/13 12:54:57;;;;;;;15.93;14.23;;;16.30;1.00;;;;;;5070932;28;20467;-79